createdAt,value
2023-02-11T00:00:15.516Z,6.40
2023-02-11T00:02:42.310Z,6.20
2023-02-11T00:05:09.403Z,6.20
2023-02-11T00:07:36.466Z,6.20
2023-02-11T00:10:04.650Z,6.00
2023-02-11T00:12:31.308Z,6.00
2023-02-11T00:14:58.379Z,5.90
2023-02-11T00:17:25.116Z,5.80
2023-02-11T00:19:52.609Z,5.80
2023-02-11T00:22:19.508Z,5.80
2023-02-11T00:24:46.337Z,5.70
2023-02-11T00:27:12.980Z,5.70
2023-02-11T00:29:40.078Z,5.70
2023-02-11T00:32:08.781Z,5.70
2023-02-11T00:34:36.471Z,5.60
2023-02-11T00:37:03.906Z,5.60
2023-02-11T00:39:31.471Z,5.60
2023-02-11T00:41:58.890Z,5.50
2023-02-11T00:44:25.935Z,5.60
2023-02-11T00:46:52.568Z,5.50
2023-02-11T00:49:19.301Z,5.50
2023-02-11T00:51:48.222Z,5.50
2023-02-11T00:54:14.999Z,5.50
2023-02-11T00:56:41.638Z,5.50
2023-02-11T00:59:09.098Z,5.50
2023-02-11T01:01:35.987Z,5.50
2023-02-11T01:04:02.690Z,5.60
2023-02-11T01:06:29.365Z,5.60
2023-02-11T01:08:56.006Z,5.60
2023-02-11T01:11:22.982Z,5.70
2023-02-11T01:13:50.638Z,5.60
2023-02-11T01:16:19.193Z,5.70
2023-02-11T01:18:46.643Z,5.70
2023-02-11T01:21:13.543Z,5.80
2023-02-11T01:23:40.182Z,5.80
2023-02-11T01:26:07.106Z,5.80
2023-02-11T01:28:33.907Z,5.90
2023-02-11T01:31:01.753Z,5.90
2023-02-11T01:33:28.714Z,5.90
2023-02-11T01:35:55.450Z,5.90
2023-02-11T01:38:24.958Z,5.90
2023-02-11T01:40:56.989Z,6.00
2023-02-11T01:43:25.192Z,5.90
2023-02-11T01:45:58.143Z,5.90
2023-02-11T01:48:34.516Z,5.90
2023-02-11T01:51:20.547Z,5.90
2023-02-11T01:54:06.777Z,5.90
2023-02-11T01:56:58.155Z,5.90
2023-02-11T01:59:34.209Z,5.90
2023-02-11T02:02:06.546Z,5.90
2023-02-11T02:04:38.717Z,5.80
2023-02-11T02:07:17.648Z,5.80
2023-02-11T02:09:49.738Z,5.80
2023-02-11T02:12:16.450Z,5.90
2023-02-11T02:14:43.179Z,5.90
2023-02-11T02:17:44.371Z,5.90
2023-02-11T02:20:34.670Z,6.00
2023-02-11T02:23:22.331Z,6.00
2023-02-11T02:26:35.232Z,6.00
2023-02-11T02:29:23.376Z,6.00
2023-02-11T02:32:10.742Z,6.00
2023-02-11T02:35:09.401Z,6.00
2023-02-11T02:38:05.072Z,6.00
2023-02-11T02:40:39.984Z,5.90
2023-02-11T02:43:08.968Z,6.00
2023-02-11T02:45:35.647Z,6.00
2023-02-11T02:48:02.420Z,6.00
2023-02-11T02:50:33.610Z,6.00
2023-02-11T02:53:11.767Z,6.00
2023-02-11T02:56:04.916Z,6.00
2023-02-11T02:58:56.589Z,6.00
2023-02-11T03:01:32.786Z,6.00
2023-02-11T03:04:09.062Z,6.10
2023-02-11T03:07:05.638Z,6.10
2023-02-11T03:09:42.498Z,6.10
2023-02-11T03:12:10.456Z,6.00
2023-02-11T03:14:38.670Z,6.00
2023-02-11T03:17:07.978Z,6.00
2023-02-11T03:19:40.853Z,6.00
2023-02-11T03:22:22.661Z,5.90
2023-02-11T03:24:49.594Z,5.80
2023-02-11T03:27:25.472Z,5.90
2023-02-11T03:30:05.159Z,5.90
2023-02-11T03:32:53.491Z,6.00
2023-02-11T03:35:22.245Z,5.90
2023-02-11T03:37:56.517Z,5.90
2023-02-11T03:40:31.911Z,5.90
2023-02-11T03:43:10.364Z,5.90
2023-02-11T03:45:38.382Z,5.90
2023-02-11T03:48:12.692Z,5.80
2023-02-11T03:50:41.050Z,5.90
2023-02-11T03:53:09.124Z,5.80
2023-02-11T03:55:39.576Z,5.80
2023-02-11T03:58:07.074Z,5.90
2023-02-11T04:00:36.660Z,5.80
2023-02-11T04:03:04.363Z,5.90
2023-02-11T04:05:31.520Z,5.90
2023-02-11T04:07:58.169Z,5.80
2023-02-11T04:10:25.810Z,5.90
2023-02-11T04:12:53.017Z,5.90
2023-02-11T04:15:19.859Z,5.90
2023-02-11T04:17:46.592Z,6.00
2023-02-11T04:20:13.328Z,6.00
2023-02-11T04:22:40.236Z,6.00
2023-02-11T04:25:08.115Z,6.00
2023-02-11T04:27:35.431Z,6.00
2023-02-11T04:30:02.278Z,5.90
2023-02-11T04:32:28.948Z,5.90
2023-02-11T04:34:55.609Z,5.80
2023-02-11T04:37:22.255Z,5.70
2023-02-11T04:39:48.910Z,5.80
2023-02-11T04:42:15.813Z,5.90
2023-02-11T04:44:42.492Z,5.90
2023-02-11T04:47:09.321Z,5.90
2023-02-11T04:49:36.042Z,5.90
2023-02-11T04:52:02.688Z,5.90
2023-02-11T04:54:29.353Z,5.80
2023-02-11T04:56:56.120Z,5.70
2023-02-11T04:59:22.762Z,5.70
2023-02-11T05:01:49.849Z,5.70
2023-02-11T05:04:17.259Z,5.60
2023-02-11T05:06:44.006Z,5.60
2023-02-11T05:09:12.116Z,5.60
2023-02-11T05:11:39.378Z,5.50
2023-02-11T05:14:08.933Z,5.40
2023-02-11T05:16:35.699Z,5.40
2023-02-11T05:19:02.509Z,5.50
2023-02-11T05:21:29.186Z,5.50
2023-02-11T05:23:55.839Z,5.50
2023-02-11T05:26:22.497Z,5.40
2023-02-11T05:28:49.181Z,5.30
2023-02-11T05:31:16.723Z,5.30
2023-02-11T05:33:43.480Z,5.40
2023-02-11T05:36:11.965Z,5.30
2023-02-11T05:38:39.056Z,5.30
2023-02-11T05:41:06.882Z,5.20
2023-02-11T05:43:35.308Z,5.20
2023-02-11T05:46:03.303Z,5.30
2023-02-11T05:48:30.755Z,5.30
2023-02-11T05:50:57.569Z,5.40
2023-02-11T05:53:24.222Z,5.40
2023-02-11T05:55:51.337Z,5.40
2023-02-11T05:58:18.237Z,5.50
2023-02-11T06:00:44.890Z,5.40
2023-02-11T06:03:11.560Z,5.40
2023-02-11T06:05:39.174Z,5.30
2023-02-11T06:08:05.839Z,5.40
2023-02-11T06:10:32.540Z,5.30
2023-02-11T06:12:59.194Z,5.40
2023-02-11T06:15:25.853Z,5.40
2023-02-11T06:17:52.513Z,5.40
2023-02-11T06:20:19.401Z,5.40
2023-02-11T06:22:46.418Z,5.40
2023-02-11T06:25:13.615Z,5.50
2023-02-11T06:27:40.543Z,5.50
2023-02-11T06:30:08.466Z,5.50
2023-02-11T06:32:43.940Z,5.50
2023-02-11T06:35:12.637Z,5.60
2023-02-11T06:37:40.194Z,5.50
2023-02-11T06:40:07.334Z,5.60
2023-02-11T06:42:35.995Z,5.50
2023-02-11T06:45:05.855Z,5.50
2023-02-11T06:47:32.578Z,5.60
2023-02-11T06:49:59.296Z,5.60
2023-02-11T06:52:25.977Z,5.60
2023-02-11T06:54:52.669Z,5.60
2023-02-11T06:57:19.382Z,5.60
2023-02-11T06:59:46.058Z,5.60
2023-02-11T07:02:12.842Z,5.60
2023-02-11T07:04:40.285Z,5.60
2023-02-11T07:07:07.045Z,5.70
2023-02-11T07:09:33.745Z,5.70
2023-02-11T07:12:00.371Z,5.70
2023-02-11T07:14:27.067Z,5.70
2023-02-11T07:16:53.798Z,5.70
2023-02-11T07:19:20.451Z,5.70
2023-02-11T07:21:48.580Z,5.70
2023-02-11T07:24:15.332Z,5.70
2023-02-11T07:26:42.020Z,5.70
2023-02-11T07:29:08.700Z,5.80
2023-02-11T07:31:35.542Z,5.80
2023-02-11T07:34:02.986Z,5.80
2023-02-11T07:36:31.836Z,5.80
2023-02-11T07:38:59.936Z,5.70
2023-02-11T07:41:27.092Z,5.70
2023-02-11T07:43:55.380Z,5.80
2023-02-11T07:46:25.533Z,5.80
2023-02-11T07:48:52.670Z,5.90
2023-02-11T07:51:20.683Z,5.90
2023-02-11T07:53:47.638Z,5.90
2023-02-11T07:56:16.399Z,6.00
2023-02-11T07:58:43.902Z,6.00
2023-02-11T08:01:13.717Z,6.00
2023-02-11T08:03:41.852Z,6.00
2023-02-11T08:06:14.623Z,6.00
2023-02-11T08:08:42.164Z,5.90
2023-02-11T08:11:20.714Z,5.90
2023-02-11T08:13:48.174Z,5.90
2023-02-11T08:16:35.298Z,5.90
2023-02-11T08:19:04.888Z,5.80
2023-02-11T08:21:32.003Z,5.90
2023-02-11T08:23:59.038Z,5.90
2023-02-11T08:26:28.864Z,5.90
2023-02-11T08:28:56.709Z,6.00
2023-02-11T08:31:29.503Z,6.00
2023-02-11T08:33:58.072Z,6.00
2023-02-11T08:36:30.039Z,6.00
2023-02-11T08:39:16.116Z,6.00
2023-02-11T08:41:46.229Z,6.00
2023-02-11T08:44:13.256Z,6.10
2023-02-11T08:46:40.110Z,6.10
2023-02-11T08:49:06.872Z,6.10
2023-02-11T08:51:33.809Z,6.10
2023-02-11T08:54:01.318Z,6.10
2023-02-11T08:56:28.807Z,6.10
2023-02-11T08:58:55.550Z,6.20
2023-02-11T09:01:25.025Z,6.20
2023-02-11T09:03:52.560Z,6.20
2023-02-11T09:06:20.019Z,6.10
2023-02-11T09:08:49.341Z,6.20
2023-02-11T09:11:17.734Z,6.10
2023-02-11T09:13:45.137Z,6.20
2023-02-11T09:16:23.693Z,6.10
2023-02-11T09:18:50.850Z,6.20
2023-02-11T09:21:19.296Z,6.20
2023-02-11T09:23:47.679Z,6.20
2023-02-11T09:26:20.036Z,6.20
2023-02-11T09:28:47.726Z,6.20
2023-02-11T09:31:26.232Z,6.20
2023-02-11T09:33:55.644Z,6.20
2023-02-11T09:36:24.728Z,6.30
2023-02-11T09:38:52.367Z,6.30
2023-02-11T09:41:58.876Z,6.30
2023-02-11T09:44:29.366Z,6.30
2023-02-11T09:47:22.523Z,6.20
2023-02-11T09:50:14.343Z,6.30
2023-02-11T09:52:43.951Z,6.40
2023-02-11T09:55:34.216Z,6.30
2023-02-11T09:58:05.170Z,6.30
2023-02-11T10:00:38.011Z,6.30
2023-02-11T10:03:12.638Z,6.30
2023-02-11T10:06:07.267Z,6.30
2023-02-11T10:08:45.672Z,6.30
2023-02-11T10:11:32.043Z,6.40
2023-02-11T10:14:26.481Z,6.40
2023-02-11T10:17:11.096Z,6.40
2023-02-11T10:19:58.854Z,6.30
2023-02-11T10:22:35.030Z,6.40
2023-02-11T10:25:16.901Z,6.40
2023-02-11T10:27:43.761Z,6.50
2023-02-11T10:30:39.710Z,6.50
2023-02-11T10:33:27.906Z,6.50
2023-02-11T10:35:54.641Z,6.50
2023-02-11T10:38:21.533Z,6.40
2023-02-11T10:40:48.265Z,6.40
2023-02-11T10:43:18.308Z,6.40
2023-02-11T10:45:49.745Z,6.50
2023-02-11T10:48:36.024Z,6.50
2023-02-11T10:51:19.158Z,6.40
2023-02-11T10:53:47.411Z,6.40
2023-02-11T10:56:27.215Z,6.40
2023-02-11T10:59:04.471Z,6.50
2023-02-11T11:01:45.474Z,6.50
2023-02-11T11:04:30.462Z,6.40
2023-02-11T11:07:17.869Z,6.40
2023-02-11T11:09:51.558Z,6.50
2023-02-11T11:12:42.046Z,6.50
2023-02-11T11:15:30.249Z,6.50
2023-02-11T11:18:23.008Z,6.50
2023-02-11T11:21:08.516Z,6.50
2023-02-11T11:23:37.521Z,6.50
2023-02-11T11:26:15.769Z,6.60
2023-02-11T11:28:46.490Z,6.60
2023-02-11T11:31:35.621Z,6.70
2023-02-11T11:34:30.074Z,6.60
2023-02-11T11:36:59.384Z,6.70
2023-02-11T11:39:34.838Z,6.70
2023-02-11T11:42:05.441Z,6.60
2023-02-11T11:44:37.356Z,6.60
2023-02-11T11:47:20.412Z,6.70
2023-02-11T11:50:22.355Z,6.70
2023-02-11T11:53:01.396Z,6.70
2023-02-11T11:55:34.778Z,6.70
2023-02-11T11:58:01.663Z,6.80
2023-02-11T12:00:35.995Z,6.80
2023-02-11T12:03:21.328Z,6.80
2023-02-11T12:06:50.998Z,6.90
2023-02-11T12:09:52.802Z,6.90
2023-02-11T12:12:39.007Z,6.80
2023-02-11T12:15:17.760Z,6.90
2023-02-11T12:17:56.506Z,6.90
2023-02-11T12:20:29.052Z,6.90
2023-02-11T12:23:23.233Z,7.00
2023-02-11T12:26:05.584Z,6.90
2023-02-11T12:29:11.250Z,6.90
2023-02-11T12:31:49.242Z,7.90
2023-02-11T12:34:43.384Z,7.70
2023-02-11T12:37:28.619Z,7.40
2023-02-11T12:40:16.710Z,7.30
2023-02-11T12:43:16.377Z,7.30
2023-02-11T12:45:49.436Z,7.20
2023-02-11T12:48:30.758Z,7.20
2023-02-11T12:51:15.618Z,7.10
2023-02-11T12:54:10.771Z,7.10
2023-02-11T12:56:55.306Z,7.00
2023-02-11T12:59:59.649Z,6.90
2023-02-11T13:02:46.676Z,7.00
2023-02-11T13:05:40.363Z,6.90
2023-02-11T13:08:25.858Z,7.00
2023-02-11T13:10:58.423Z,6.90
2023-02-11T13:13:37.068Z,7.00
2023-02-11T13:16:17.049Z,7.00
2023-02-11T13:19:38.001Z,7.10
2023-02-11T13:22:16.686Z,7.10
2023-02-11T13:24:58.167Z,6.90
2023-02-11T13:28:03.292Z,6.80
2023-02-11T13:30:34.645Z,6.80
2023-02-11T13:33:01.378Z,6.90
2023-02-11T13:35:36.651Z,6.90
2023-02-11T13:38:19.871Z,6.90
2023-02-11T13:40:58.407Z,6.90
2023-02-11T13:43:30.427Z,6.90
2023-02-11T13:46:05.870Z,6.90
2023-02-11T13:48:38.606Z,7.00
2023-02-11T13:51:08.663Z,6.90
2023-02-11T13:53:54.518Z,7.00
2023-02-11T13:56:31.232Z,7.00
2023-02-11T13:59:02.164Z,7.00
2023-02-11T14:02:20.922Z,6.90
2023-02-11T14:05:41.610Z,7.00
2023-02-11T14:08:29.542Z,7.10
2023-02-11T14:11:12.863Z,7.10
2023-02-11T14:13:48.807Z,7.10
2023-02-11T14:16:31.643Z,7.10
2023-02-11T14:19:05.960Z,7.10
2023-02-11T14:21:36.353Z,7.10
2023-02-11T14:24:04.738Z,7.10
2023-02-11T14:26:34.778Z,7.10
2023-02-11T14:29:39.257Z,7.10
2023-02-11T14:32:32.248Z,7.20
2023-02-11T14:35:15.270Z,7.20
2023-02-11T14:37:55.618Z,7.30
2023-02-11T14:40:35.358Z,7.30
2023-02-11T14:43:19.816Z,7.30
2023-02-11T14:45:51.757Z,7.30
2023-02-11T14:48:20.413Z,7.30
2023-02-11T14:50:51.756Z,7.40
2023-02-11T14:53:23.769Z,7.30
2023-02-11T14:55:52.495Z,7.30
2023-02-11T14:58:23.089Z,7.40
2023-02-11T15:01:22.448Z,7.40
2023-02-11T15:03:49.885Z,7.50
2023-02-11T15:06:19.802Z,7.50
2023-02-11T15:08:53.519Z,7.40
2023-02-11T15:11:22.484Z,7.40
2023-02-11T15:13:50.228Z,7.30
2023-02-11T15:16:21.591Z,7.40
2023-02-11T15:18:51.774Z,7.30
2023-02-11T15:21:23.924Z,7.30
2023-02-11T15:24:06.171Z,7.20
2023-02-11T15:26:33.412Z,7.30
2023-02-11T15:29:00.593Z,7.30
2023-02-11T15:31:28.378Z,7.40
2023-02-11T15:33:55.449Z,7.50
2023-02-11T15:36:28.621Z,7.50
2023-02-11T15:39:31.360Z,7.50
2023-02-11T15:42:26.841Z,7.40
2023-02-11T15:45:28.970Z,7.40
2023-02-11T15:48:07.620Z,7.50
2023-02-11T15:50:37.061Z,7.60
2023-02-11T15:53:21.856Z,7.60
2023-02-11T15:55:56.424Z,7.60
2023-02-11T15:58:23.634Z,7.60
2023-02-11T16:00:56.504Z,7.70
2023-02-11T16:03:25.146Z,7.70
2023-02-11T16:05:51.972Z,7.70
2023-02-11T16:08:24.787Z,7.70
2023-02-11T16:10:58.481Z,7.70
2023-02-11T16:13:28.037Z,7.70
2023-02-11T16:16:04.554Z,7.70
2023-02-11T16:18:40.440Z,7.70
2023-02-11T16:21:16.676Z,7.70
2023-02-11T16:23:50.348Z,7.80
2023-02-11T16:26:40.824Z,7.80
2023-02-11T16:29:16.513Z,7.70
2023-02-11T16:31:46.352Z,7.70
2023-02-11T16:34:22.146Z,7.70
2023-02-11T16:36:50.009Z,7.70
2023-02-11T16:39:17.916Z,7.70
2023-02-11T16:41:45.209Z,7.70
2023-02-11T16:44:11.886Z,7.70
2023-02-11T16:46:38.939Z,7.70
2023-02-11T16:49:20.306Z,7.70
2023-02-11T16:51:53.010Z,7.80
2023-02-11T16:54:20.304Z,7.80
2023-02-11T16:56:46.970Z,7.80
2023-02-11T16:59:13.684Z,7.80
2023-02-11T17:01:42.231Z,7.80
2023-02-11T17:04:28.495Z,7.70
2023-02-11T17:06:57.965Z,7.80
2023-02-11T17:09:30.481Z,7.80
2023-02-11T17:11:57.866Z,7.70
2023-02-11T17:14:24.631Z,7.70
2023-02-11T17:16:51.541Z,7.80
2023-02-11T17:19:21.037Z,7.80
2023-02-11T17:21:49.576Z,9.20
2023-02-11T17:24:17.377Z,9.00
2023-02-11T17:26:45.728Z,8.90
2023-02-11T17:29:18.338Z,8.70
2023-02-11T17:31:45.346Z,8.60
2023-02-11T17:34:12.537Z,8.40
2023-02-11T17:36:41.304Z,8.30
2023-02-11T17:39:08.551Z,8.20
2023-02-11T17:41:38.772Z,8.20
2023-02-11T17:44:06.701Z,8.20
2023-02-11T17:46:34.688Z,8.10
2023-02-11T17:49:02.718Z,8.10
2023-02-11T17:51:32.626Z,8.10
2023-02-11T17:54:01.556Z,8.20
2023-02-11T17:56:30.714Z,8.10
2023-02-11T17:58:57.371Z,8.10
2023-02-11T18:01:27.332Z,8.10
2023-02-11T18:03:54.004Z,8.10
2023-02-11T18:06:21.667Z,8.00
2023-02-11T18:08:48.466Z,8.00
2023-02-11T18:11:16.296Z,7.90
2023-02-11T18:13:43.875Z,7.90
2023-02-11T18:16:15.658Z,8.00
2023-02-11T18:18:43.426Z,8.10
2023-02-11T18:21:15.071Z,8.00
2023-02-11T18:23:42.413Z,7.90
2023-02-11T18:26:11.253Z,7.90
2023-02-11T18:28:38.857Z,7.90
2023-02-11T18:31:07.269Z,7.90
2023-02-11T18:33:34.757Z,7.90
2023-02-11T18:36:09.154Z,7.80
2023-02-11T18:38:36.124Z,7.80
2023-02-11T18:41:03.994Z,7.70
2023-02-11T18:43:31.717Z,7.70
2023-02-11T18:45:58.541Z,7.70
2023-02-11T18:48:28.413Z,7.70
2023-02-11T18:50:55.656Z,7.70
2023-02-11T18:53:23.226Z,7.80
2023-02-11T18:55:50.528Z,7.80
2023-02-11T18:58:17.774Z,7.80
2023-02-11T19:00:47.168Z,7.80
2023-02-11T19:03:14.157Z,7.90
2023-02-11T19:05:42.629Z,7.90
2023-02-11T19:08:09.752Z,7.90
2023-02-11T19:10:49.333Z,7.90
2023-02-11T19:13:15.988Z,8.00
2023-02-11T19:15:46.955Z,8.00
2023-02-11T19:18:15.560Z,8.00
2023-02-11T19:20:43.382Z,8.00
2023-02-11T19:23:10.340Z,7.90
2023-02-11T19:25:37.563Z,8.00
2023-02-11T19:28:04.393Z,8.00
2023-02-11T19:30:31.696Z,8.00
2023-02-11T19:32:58.463Z,8.10
2023-02-11T19:35:25.376Z,8.00
2023-02-11T19:37:52.156Z,8.00
2023-02-11T19:40:21.134Z,8.10
2023-02-11T19:42:47.858Z,8.10
2023-02-11T19:45:14.796Z,8.10
2023-02-11T19:47:41.541Z,8.10
2023-02-11T19:50:08.661Z,8.10
2023-02-11T19:52:40.088Z,8.20
2023-02-11T19:55:07.387Z,8.20
2023-02-11T19:57:34.051Z,8.20
2023-02-11T20:00:01.313Z,8.20
2023-02-11T20:02:29.165Z,8.30
2023-02-11T20:04:55.857Z,8.20
2023-02-11T20:07:22.660Z,8.30
2023-02-11T20:09:49.316Z,8.20
2023-02-11T20:12:16.155Z,8.20
2023-02-11T20:14:42.956Z,8.20
2023-02-11T20:17:09.596Z,8.20
2023-02-11T20:19:36.244Z,8.20
2023-02-11T20:22:03.248Z,8.20
2023-02-11T20:24:29.910Z,8.20
2023-02-11T20:26:56.710Z,8.30
2023-02-11T20:29:24.635Z,8.20
2023-02-11T20:31:51.544Z,8.30
2023-02-11T20:34:18.678Z,8.20
2023-02-11T20:36:51.934Z,8.20
2023-02-11T20:39:21.587Z,8.20
2023-02-11T20:41:49.192Z,8.30
2023-02-11T20:44:16.409Z,8.30
2023-02-11T20:46:48.052Z,8.30
2023-02-11T20:49:18.667Z,8.30
2023-02-11T20:51:45.484Z,8.30
2023-02-11T20:54:15.128Z,8.20
2023-02-11T20:56:42.146Z,8.20
2023-02-11T20:59:09.401Z,8.20
2023-02-11T21:01:40.494Z,8.20
2023-02-11T21:04:11.612Z,8.30
2023-02-11T21:06:44.897Z,8.30
2023-02-11T21:09:14.379Z,8.30
2023-02-11T21:11:41.654Z,8.20
2023-02-11T21:14:09.820Z,8.20
2023-02-11T21:16:36.515Z,8.20
2023-02-11T21:19:03.264Z,8.20
2023-02-11T21:21:30.294Z,8.20
2023-02-11T21:23:58.368Z,8.30
2023-02-11T21:26:25.523Z,8.20
2023-02-11T21:28:52.433Z,8.20
2023-02-11T21:31:25.342Z,8.20
2023-02-11T21:33:54.392Z,8.20
2023-02-11T21:36:22.725Z,8.20
2023-02-11T21:38:49.968Z,8.20
2023-02-11T21:41:17.820Z,8.20
2023-02-11T21:43:44.740Z,8.20
2023-02-11T21:46:14.412Z,8.20
2023-02-11T21:48:41.756Z,8.20
2023-02-11T21:51:13.222Z,8.20
2023-02-11T21:53:40.024Z,8.20
2023-02-11T21:56:10.204Z,8.20
2023-02-11T21:58:37.718Z,8.10
2023-02-11T22:01:19.477Z,8.10
2023-02-11T22:03:46.362Z,8.10
2023-02-11T22:06:22.423Z,8.10
2023-02-11T22:08:53.105Z,8.10
2023-02-11T22:11:20.611Z,8.10
2023-02-11T22:13:47.576Z,8.10
2023-02-11T22:16:16.507Z,8.10
2023-02-11T22:18:46.205Z,8.10
2023-02-11T22:21:18.770Z,8.10
2023-02-11T22:23:46.176Z,8.10
2023-02-11T22:26:16.166Z,8.10
2023-02-11T22:28:43.665Z,8.20
2023-02-11T22:31:19.380Z,8.10
2023-02-11T22:33:46.535Z,8.10
2023-02-11T22:36:25.436Z,8.10
2023-02-11T22:38:52.686Z,8.00
2023-02-11T22:41:20.309Z,8.00
2023-02-11T22:43:47.552Z,8.00
2023-02-11T22:46:17.600Z,8.10
2023-02-11T22:48:44.685Z,8.20
2023-02-11T22:51:20.527Z,8.10
2023-02-11T22:53:58.279Z,8.20
2023-02-11T22:56:26.466Z,8.10
2023-02-11T22:58:56.123Z,8.00
2023-02-11T23:01:23.026Z,7.90
2023-02-11T23:03:49.756Z,7.90
2023-02-11T23:06:17.154Z,7.90
2023-02-11T23:08:44.473Z,7.90
2023-02-11T23:11:20.177Z,7.90
2023-02-11T23:13:48.071Z,8.00
2023-02-11T23:16:21.930Z,8.10
2023-02-11T23:18:49.690Z,8.10
2023-02-11T23:21:22.290Z,8.10
2023-02-11T23:23:54.254Z,8.10
2023-02-11T23:26:20.973Z,8.20
2023-02-11T23:28:47.996Z,8.20
2023-02-11T23:31:16.032Z,8.10
2023-02-11T23:33:43.123Z,8.10
2023-02-11T23:36:10.282Z,8.20
2023-02-11T23:38:37.563Z,8.20
2023-02-11T23:41:04.612Z,8.20
2023-02-11T23:43:31.413Z,8.20
2023-02-11T23:45:58.353Z,8.20
2023-02-11T23:48:25.893Z,8.20
2023-02-11T23:50:52.619Z,8.20
2023-02-11T23:53:19.273Z,8.20
2023-02-11T23:55:46.829Z,8.20
2023-02-11T23:58:14.646Z,8.20
